EDT,Max TemperatureF,Mean TemperatureF,Min TemperatureF,Max Dew PointF,MeanDew PointF,Min DewpointF,Max Humidity, Mean Humidity, Min Humidity, Max Sea Level PressureIn, Mean Sea Level PressureIn, Min Sea Level PressureIn, Max VisibilityMiles, Mean VisibilityMiles, Min VisibilityMiles, Max Wind SpeedMPH, Mean Wind SpeedMPH, Max Gust SpeedMPH,PrecipitationIn, CloudCover, Events, WindDirDegrees
2011-10-1,55,46,37,37,34,31,90,67,40,30.25,30.16,30.04,10,10,7,15,10,22,0.00,3,,351
2011-10-2,62,46,30,42,35,30,100,73,32,30.22,30.17,30.07,10,10,7,15,4,21,0.00,0,,324
2011-10-3,68,52,36,46,38,31,99,72,26,30.19,30.14,30.09,10,10,7,14,4,20,0.00,0,,354
2011-10-4,73,55,37,50,42,37,99,72,30,30.29,30.24,30.20,10,10,7,8,1,,0.00,0,,259
2011-10-5,69,54,39,54,45,39,99,78,39,30.29,30.26,30.22,10,9,2,12,2,12,0.00,0,,67
2011-10-6,78,58,37,55,46,38,100,79,36,30.34,30.30,30.26,10,10,5,5,0,,0.00,0,,162
2011-10-7,81,62,43,56,50,43,100,74,35,30.38,30.33,30.29,10,7,0,12,2,16,0.00,1,Fog,174
2011-10-8,81,64,46,56,52,46,99,68,36,30.37,30.33,30.29,10,9,1,13,4,,0.00,0,,205
2011-10-9,81,64,46,56,51,46,100,75,35,30.40,30.35,30.29,10,8,1,9,1,,0.00,0,,237
2011-10-10,77,60,44,56,51,44,100,78,42,30.31,30.24,30.14,10,8,1,10,1,,0.00,0,,95
2011-10-11,81,64,47,56,50,43,99,73,26,30.14,30.06,29.99,10,9,0,10,1,16,0.00,0,Fog,111
2011-10-12,71,58,44,58,49,43,96,78,42,29.99,29.92,29.82,10,8,1,13,2,20,0.00,1,,115
2011-10-13,68,62,57,56,54,51,96,80,56,29.75,29.61,29.47,10,9,5,9,3,,0.00,7,,157
2011-10-14,59,55,51,57,52,44,93,85,69,29.42,29.32,29.26,10,8,3,22,9,29,0.15,8,Rain,240
2011-10-15,56,50,45,41,37,32,83,62,40,29.67,29.50,29.41,10,10,10,26,16,38,0.00,7,Rain,267
2011-10-16,61,54,47,44,37,28,76,56,32,29.75,29.68,29.60,10,10,10,18,10,36,0.00,4,Rain,256
2011-10-17,60,52,45,35,32,29,58,47,35,29.63,29.62,29.60,10,10,10,23,12,34,0.00,2,,250
2011-10-18,53,43,33,39,37,32,96,68,52,29.83,29.77,29.72,10,10,10,8,3,,0.00,5,,311
2011-10-19,48,46,44,45,41,37,90,84,74,29.86,29.75,29.59,10,10,4,17,7,30,0.01,8,Rain,15
2011-10-20,45,44,43,43,42,40,91,90,88,29.40,29.30,29.24,10,8,2,21,15,34,0.23,8,Rain,353
2011-10-21,49,46,43,40,37,34,88,70,59,30.05,29.91,29.65,10,10,10,14,8,17,0.00,8,,284
2011-10-22,61,45,29,40,34,29,98,69,34,30.07,30.04,30.00,10,10,4,9,3,,0.00,1,,249
2011-10-23,65,48,31,42,37,30,98,72,37,30.02,29.94,29.86,10,9,0,12,1,9,0.00,1,Fog,220
2011-10-24,60,53,46,48,43,30,94,73,34,29.94,29.85,29.76,10,10,5,20,8,31,0.23,4,Rain,242
2011-10-25,47,40,33,45,40,32,95,92,88,30.15,30.06,29.90,10,9,3,17,3,22,0.24,7,Rain,75
2011-10-26,49,47,45,47,44,40,93,87,74,29.92,29.86,29.80,10,9,3,14,8,20,0.00,8,Rain,22
2011-10-27,50,44,37,37,35,32,93,79,52,29.97,29.94,29.90,10,10,10,9,4,,0.00,5,,330
2011-10-28,49,37,25,35,30,24,96,79,46,30.20,30.15,30.09,10,10,7,7,1,,0.00,3,,209
2011-10-29,49,39,29,38,34,28,96,86,60,30.07,30.03,30.00,10,9,4,6,1,,0.00,5,Rain,338
2011-10-30,51,38,25,39,30,24,97,80,43,30.19,30.13,30.06,10,5,0,9,1,,0.00,5,Fog,153
2011-10-31,56,50,45,41,37,35,84,63,46,30.08,30.03,30.00,10,10,10,10,7,17,0.00,6,,171